Latest Weather Observations for Wangaratta

IDV60801

Issued at 10:32 am EST Monday 19 August 2019 (issued every 10 minutes, with the page automatically refreshed every 10 minutes)

About weather observations | Map of weather stations | Latest weather observations for VIC | Other Formats
Station Details ID: 082138 Name: WANGARATTA AERO Lat: -36.42 Lon: 146.31 Height: 152.6 m
Data from the previous 72 hours. | See also: Recent months at Wangaratta
Date/Time
EST
Temp
°C
App
Temp
°C
Dew
Point
°C
Rel
Hum
%
Delta-T
°C
Wind Press
QNH
hPa
Press
MSL
hPa
Rain since
9am
mm
Dir  Spd
km/h
Gust
km/h
Spd
kts
Gust
kts
19/10:30am 8.1 2.5 3.4 72 2.0 W 22 35 12 19 1020.1 1020.4 0.0
19/10:00am 7.2 1.1 2.9 74 1.8 W 24 33 13 18 1019.4 1019.6 0.0
19/09:30am 6.7 0.4 3.5 80 1.4 W 26 33 14 18 1019.2 1019.4 0.0
19/09:00am 5.9 0.7 3.4 84 1.1 W 20 30 11 16 1018.8 1019.0 6.0
19/08:30am 5.0 -1.1 2.9 86 0.9 W 24 35 13 19 1018.0 1018.3 6.0
19/08:19am 5.3 -1.1 3.2 86 0.9 W 26 32 14 17 1017.9 1018.2 6.0
19/08:00am 5.0 -0.2 3.5 90 0.6 W 20 32 11 17 1017.5 1017.8 6.0
19/07:40am 4.5 0.7 3.8 95 0.3 W 13 20 7 11 1017.3 1017.6 6.0
19/07:32am 4.2 0.3 3.6 96 0.3 W 13 17 7 9 1017.1 1017.4 6.0
19/07:30am 4.2 0.3 3.6 96 0.3 W 13 17 7 9 1017.1 1017.4 6.0
19/07:00am 4.4 0.9 3.7 95 0.3 NW 11 19 6 10 1016.3 1016.6 6.0
19/06:30am 4.8 0.6 3.9 94 0.4 WNW 15 22 8 12 1015.7 1016.0 6.0
19/06:00am 5.0 0.5 4.0 93 0.4 W 17 26 9 14 1015.2 1015.5 6.0
19/05:30am 5.0 0.9 4.1 94 0.4 W 15 26 8 14 1014.6 1014.9 6.0
19/05:00am 5.3 0.4 4.3 93 0.4 WNW 19 28 10 15 1014.4 1014.7 6.0
19/04:30am 5.5 1.4 4.6 94 0.4 WNW 15 22 8 12 1014.1 1014.3 6.0
19/04:00am 5.7 2.8 4.7 93 0.4 NW 9 13 5 7 1014.1 1014.3 6.0
19/03:30am 5.6 2.7 4.6 93 0.4 WNW 9 17 5 9 1013.8 1014.0 6.0
19/03:00am 5.8 1.7 4.4 91 0.6 W 15 24 8 13 1013.7 1013.9 6.0
19/02:30am 5.7 2.8 4.7 93 0.4 WNW 9 15 5 8 1013.6 1013.8 6.0
19/02:00am 5.8 1.7 4.4 91 0.6 W 15 24 8 13 1013.4 1013.6 6.0
19/01:30am 5.8 1.7 4.4 91 0.6 WNW 15 26 8 14 1013.2 1013.4 6.0
19/01:00am 6.0 1.6 4.6 91 0.6 WNW 17 26 9 14 1013.2 1013.4 6.0
19/12:56am 5.9 1.4 4.4 90 0.6 WNW 17 24 9 13 1013.1 1013.3 6.0
19/12:30am 5.8 0.7 4.1 89 0.7 W 20 30 11 16 1012.8 1013.0 6.0
19/12:00am 5.8 1.3 4.1 89 0.7 WNW 17 24 9 13 1012.7 1012.9 6.0
 
Date/Time
EST
Temp
°C
App
Temp
°C
Dew
Point
°C
Rel
Hum
%
Delta-T
°C
Wind Press
QNH
hPa
Press
MSL
hPa
Rain since
9am
mm
Dir  Spd
km/h
Gust
km/h
Spd
kts
Gust
kts
18/11:30pm 6.3 0.4 4.0 85 1.0 WNW 24 35 13 19 1012.3 1012.5 6.0
18/11:00pm 6.6 -0.4 4.1 84 1.1 WNW 30 46 16 25 1011.9 1012.1 6.0
18/10:30pm 7.2 0.3 4.5 83 1.2 WNW 30 43 16 23 1011.4 1011.7 6.0
18/10:00pm 7.6 1.1 4.9 83 1.2 WNW 28 41 15 22 1011.3 1011.6 6.0
18/09:30pm 7.9 0.8 5.5 85 1.1 WNW 32 52 17 28 1011.0 1011.3 6.0
18/09:23pm 8.2 1.1 5.5 83 1.2 WNW 32 52 17 28 1010.9 1011.2 6.0
18/09:00pm 8.3 2.9 6.3 87 0.9 WNW 24 35 13 19 1010.8 1011.1 6.0
18/08:30pm 8.3 2.9 6.4 88 0.9 NW 24 39 13 21 1010.8 1011.1 6.0
18/08:00pm 8.5 5.3 7.0 90 0.7 NNW 13 24 7 13 1010.3 1010.6 6.0
18/07:30pm 8.4 6.1 7.5 94 0.4 N 9 13 5 7 1010.0 1010.3 6.0
18/07:00pm 8.4 6.4 7.3 93 0.5 NW 7 11 4 6 1009.6 1009.9 6.0
18/06:30pm 8.5 5.2 8.2 98 0.1 WNW 15 24 8 13 1009.6 1009.9 5.6
18/06:00pm 8.9 3.1 8.0 94 0.4 W 28 50 15 27 1009.0 1009.3 3.6
18/05:53pm 9.2 2.7 8.1 93 0.5 W 32 50 17 27 1008.8 1009.1 3.2
18/05:47pm 9.2 2.5 8.1 93 0.5 W 33 48 18 26 1008.6 1008.8 2.8
18/05:34pm 9.6 1.9 8.8 95 0.4 W 39 54 21 29 1008.5 1008.7 1.8
18/05:30pm 9.7 2.1 9.2 97 0.2 W 39 54 21 29 1008.5 1008.7 1.6
18/05:00pm 11.7 3.0 7.8 77 1.9 W 43 61 23 33 1007.3 1007.5 0.2
18/04:44pm 12.6 6.3 7.3 70 2.6 W 30 50 16 27 1006.1 1006.3 0.0
18/04:30pm 12.6 5.3 7.3 70 2.6 W 35 50 19 27 1005.9 1006.1 0.0
18/04:24pm 13.1 4.2 6.9 66 3.0 W 43 59 23 32 1005.7 1005.9 0.0
18/04:15pm 15.0 10.7 6.8 58 4.0 NW 19 54 10 29 1005.2 1005.4 0.0
18/04:00pm 16.1 13.8 9.1 63 3.6 NNW 11 13 6 7 1004.9 1005.1 0.0
18/03:30pm 17.1 12.7 6.6 50 5.2 N 19 24 10 13 1004.6 1004.9 0.0
18/03:00pm 17.2 13.3 7.3 52 5.0 N 17 24 9 13 1005.5 1005.7 0.0
18/02:30pm 17.7 13.6 6.3 47 5.7 N 17 24 9 13 1006.0 1006.2 0.0
18/02:00pm 17.4 10.7 5.4 45 5.9 N 30 43 16 23 1006.2 1006.4 0.0
18/01:30pm 17.7 13.1 6.6 48 5.5 N 20 30 11 16 1007.1 1007.3 0.0
18/01:00pm 16.1 10.9 5.4 49 5.2 NNE 22 32 12 17 1007.9 1008.1 0.0
18/12:30pm 15.6 11.1 6.3 54 4.5 NNE 19 30 10 16 1008.9 1009.2 0.0
18/12:00pm 13.8 10.8 7.6 66 3.1 NE 13 15 7 8 1009.7 1010.0 0.0
18/11:30am 12.5 10.7 7.0 69 2.7 NNW 6 11 3 6 1011.2 1011.5 0.0
18/11:00am 11.4 11.2 9.0 85 1.2 CALM 0 0 0 0 1011.2 1011.5 0.0
18/10:30am 11.0 8.7 9.1 88 1.0 W 11 15 6 8 1012.0 1012.2 0.0
18/10:00am 10.2 9.1 8.5 89 0.8 WSW 4 7 2 4 1012.4 1012.6 0.0
18/09:30am 10.0 8.6 8.8 92 0.6 SSW 6 9 3 5 1012.8 1013.0 0.0
18/09:00am 8.9 7.4 8.6 98 0.1 S 6 7 3 4 1013.4 1013.6 0.2
18/08:30am 7.3 6.3 7.3 100 0.0 SSW 2 7 1 4 1013.8 1014.0 0.2
18/08:00am 5.9 5.0 5.9 100 0.0 CALM 0 0 0 0 1014.0 1014.2 0.2
18/07:30am 4.9 2.6 4.9 100 0.0 SW 6 7 3 4 1014.2 1014.5 0.2
18/07:00am 4.8 2.3 4.8 100 0.0 SW 7 9 4 5 1014.4 1014.7 0.2
18/06:30am 4.9 3.0 4.9 100 0.0 SW 4 6 2 3 1014.5 1014.8 0.2
18/06:00am 4.5 2.9 4.5 100 0.0 SSW 2 7 1 4 1015.0 1015.3 0.2
18/05:30am 4.6 2.3 4.6 100 0.0 SSW 6 7 3 4 1015.1 1015.4 0.2
18/05:00am 4.6 2.3 4.6 100 0.0 SSW 6 9 3 5 1015.1 1015.4 0.2
18/04:30am 4.7 2.4 4.7 100 0.0 S 6 7 3 4 1015.2 1015.5 0.2
18/04:00am 4.5 2.0 4.5 100 0.0 WSW 7 9 4 5 1015.6 1015.9 0.2
18/03:30am 4.2 1.6 4.2 100 0.0 ESE 7 11 4 6 1015.7 1016.0 0.2
18/03:00am 3.3 1.5 3.3 100 0.0 SSW 2 9 1 5 1016.6 1016.9 0.2
18/02:30am 2.8 -0.1 2.8 100 0.0 SW 7 9 4 5 1016.7 1017.0 0.2
18/02:21am 2.4 -0.5 2.4 100 0.0 SSW 7 9 4 5 1016.9 1017.2 0.2
18/02:00am 1.5 -2.0 1.5 100 0.0 SW 9 11 5 6 1017.1 1017.4 0.2
18/01:47am 0.9 -2.3 0.9 100 0.0 SSW 7 11 4 6 1017.3 1017.6 0.2
18/01:30am 1.9 -0.9 1.9 100 0.0 SSE 6 6 3 3 1017.4 1017.7 0.2
18/01:14am 1.3 -0.9 1.3 100 0.0 WSW 2 6 1 3 1017.7 1018.0 0.2
18/01:00am 2.3 0.3 2.3 100 0.0 WSW 2 6 1 3 1017.8 1018.1 0.2
18/12:30am 1.2 -1.4 1.2 100 0.0 SSW 4 7 2 4 1018.1 1018.4 0.2
18/12:00am 2.1 -0.7 2.1 100 0.0 SE 6 7 3 4 1018.1 1018.4 0.2
 
Date/Time
EST
Temp
°C
App
Temp
°C
Dew
Point
°C
Rel
Hum
%
Delta-T
°C
Wind Press
QNH
hPa
Press
MSL
hPa
Rain since
9am
mm
Dir  Spd
km/h
Gust
km/h
Spd
kts
Gust
kts
17/11:30pm 3.2 0.6 3.2 100 0.0 SSW 6 7 3 4 1018.5 1018.7 0.2
17/11:24pm 3.2 0.6 3.2 100 0.0 SW 6 7 3 4 1018.5 1018.7 0.2
17/11:22pm 3.0 0.2 3.0 100 0.0 WSW 7 7 4 4 1018.5 1018.7 0.2
17/11:00pm 3.3 1.9 3.3 100 0.0 CALM 0 0 0 0 1018.6 1018.8 0.2
17/10:41pm 3.7 2.3 3.7 100 0.0 CALM 0 0 0 0 1018.5 1018.7 0.2
17/10:30pm 4.2 2.5 4.2 100 0.0 ESE 2 6 1 3 1018.6 1018.8 0.2
17/10:29pm 4.4 2.8 4.4 100 0.0 ESE 2 6 1 3 1018.6 1018.8 0.2
17/10:00pm 4.5 2.1 4.5 100 0.0 SSE 6 7 3 4 1018.7 1018.9 0.2
17/09:34pm 4.9 2.6 4.9 100 0.0 SSW 6 6 3 3 1018.3 1018.6 0.2
17/09:30pm 4.9 2.6 4.9 100 0.0 SW 6 6 3 3 1018.5 1018.7 0.2
17/09:00pm 4.9 3.8 4.9 100 0.0 CALM 0 0 0 0 1018.5 1018.7 0.2
17/08:30pm 5.7 4.7 5.6 99 0.0 CALM 0 0 0 0 1018.1 1018.4 0.2
17/08:00pm 6.5 4.4 5.8 95 0.3 E 6 7 3 4 1018.0 1018.3 0.2
17/07:30pm 7.5 4.7 5.1 85 1.1 NNE 9 11 5 6 1018.5 1018.7 0.2
17/07:00pm 8.2 5.7 6.5 89 0.8 ENE 9 11 5 6 1018.2 1018.5 0.2
17/06:30pm 9.0 7.0 7.0 87 0.9 ENE 7 9 4 5 1018.1 1018.4 0.2
17/06:00pm 10.2 8.1 6.5 78 1.7 ENE 7 9 4 5 1017.9 1018.2 0.2
17/05:30pm 13.2 11.2 7.2 67 2.9 N 7 9 4 5 1018.2 1018.5 0.2
17/05:00pm 13.9 11.2 7.2 64 3.3 N 11 17 6 9 1018.2 1018.5 0.2
17/04:30pm 14.5 11.2 6.3 58 4.0 N 13 17 7 9 1018.2 1018.5 0.2
17/04:00pm 15.5 13.8 6.0 53 4.6 NNW 4 9 2 5 1018.1 1018.4 0.2
17/03:30pm 15.2 13.7 4.9 50 4.9 ENE 2 7 1 4 1017.9 1018.2 0.2
17/03:00pm 15.4 13.9 5.0 50 4.9 NNW 2 11 1 6 1017.9 1018.2 0.2
17/02:30pm 14.5 13.0 5.0 53 4.5 N 2 7 1 4 1018.2 1018.5 0.2
17/02:00pm 14.1 11.8 4.9 54 4.3 NNE 6 9 3 5 1018.6 1018.8 0.2
17/01:30pm 13.8 12.1 5.7 58 3.9 WSW 4 9 2 5 1019.1 1019.3 0.2
17/01:00pm 13.1 11.2 6.7 65 3.1 S 6 11 3 6 1019.3 1019.5 0.2
17/12:30pm 12.2 9.9 5.8 65 3.0 SSE 7 11 4 6 1019.8 1020.1 0.2
17/12:00pm 11.6 9.6 6.1 69 2.6 S 6 9 3 5 1020.3 1020.6 0.0
17/11:30am 11.0 8.9 6.0 71 2.3 SSE 6 9 3 5 1020.8 1021.1 0.0
17/11:00am 9.9 7.6 5.7 75 1.9 SSE 7 11 4 6 1020.9 1021.2 0.0
17/10:30am 8.8 6.3 4.8 76 1.8 SSE 7 9 4 5 1021.0 1021.3 0.0
17/10:00am 7.9 5.3 5.9 87 0.9 SSE 9 11 5 6 1021.1 1021.4 0.0
17/09:30am 6.7 4.5 5.5 92 0.5 ESE 6 11 3 6 1021.2 1021.5 0.0
17/09:00am 6.1 4.0 6.0 99 0.0 NE 6 9 3 5 1021.2 1021.5 0.4
17/08:30am 4.3 1.7 4.3 100 0.0 NNE 7 9 4 5 1021.1 1021.4 0.4
17/08:00am 2.4 -0.3 2.4 100 0.0 N 6 7 3 4 1020.9 1021.2 0.4
17/07:48am 1.6 -0.1 1.6 100 0.0 CALM 0 6 0 3 1020.7 1021.0 0.4
17/07:47am 1.3 -0.9 1.3 100 0.0 WSW 2 6 1 3 1020.7 1021.0 0.4
17/07:30am 0.8 -1.8 0.8 100 0.0 SW 4 7 2 4 1020.4 1020.7 0.4
17/07:21am 0.6 -2.4 0.6 100 0.0 WSW 6 7 3 4 1020.3 1020.6 0.4
17/07:14am 0.1 -2.2 0.1 100 0.0 W 2 6 1 3 1020.2 1020.5 0.4
17/07:06am -0.1 -2.1 -0.1 100 0.0 CALM 0 0 0 0 1020.1 1020.4 0.4
17/07:03am -0.2 -2.2 -0.2 100 0.0 CALM 0 6 0 3 1020.0 1020.3 0.4
17/07:00am -0.1 -2.5 -0.1 100 0.0 SSE 2 7 1 4 1020.0 1020.3 0.4
17/06:30am 1.0 -2.0 1.0 100 0.0 WSW 6 9 3 5 1019.7 1020.0 0.4
17/06:00am 1.4 -1.7 1.4 100 0.0 SW 7 9 4 5 1019.3 1019.5 0.4
17/05:30am 1.4 -1.5 1.4 100 0.0 SSE 6 7 3 4 1019.2 1019.4 0.4
17/05:00am 2.1 -0.7 2.1 100 0.0 SE 6 7 3 4 1019.1 1019.3 0.4
17/04:30am 1.2 -0.6 1.2 100 0.0 CALM 0 0 0 0 1019.0 1019.2 0.4
17/04:00am 2.0 -0.8 2.0 100 0.0 SSW 6 9 3 5 1019.0 1019.2 0.4
17/03:43am 2.4 -0.9 2.4 100 0.0 ESE 9 11 5 6 1019.1 1019.3 0.4
17/03:35am 2.6 -1.1 2.6 100 0.0 ESE 11 13 6 7 1018.9 1019.1 0.4
17/03:30am 2.6 -0.7 2.5 99 0.0 ESE 9 13 5 7 1018.9 1019.1 0.4
17/03:00am 4.2 1.2 4.1 99 0.0 ESE 9 11 5 6 1018.7 1018.9 0.4
17/02:30am 4.1 0.2 3.4 95 0.3 ESE 13 17 7 9 1018.5 1018.7 0.4
17/02:00am 6.4 2.3 4.4 87 0.9 WSW 15 19 8 10 1018.6 1018.8 0.4
17/01:30am 6.9 2.5 4.9 87 0.9 SW 17 20 9 11 1018.6 1018.8 0.4
17/01:00am 6.8 4.0 5.1 89 0.8 SW 9 11 5 6 1018.6 1018.8 0.4
17/12:30am 6.9 2.3 5.5 91 0.6 WSW 19 20 10 11 1018.7 1018.9 0.4
17/12:00am 7.5 3.7 5.8 89 0.8 SW 15 19 8 10 1018.8 1019.0 0.4
 
Date/Time
EST
Temp
°C
App
Temp
°C
Dew
Point
°C
Rel
Hum
%
Delta-T
°C
Wind Press
QNH
hPa
Press
MSL
hPa
Rain since
9am
mm
Dir  Spd
km/h
Gust
km/h
Spd
kts
Gust
kts
16/11:30pm 7.4 3.6 6.0 91 0.6 SW 15 19 8 10 1018.8 1019.0 0.4
16/11:00pm 7.3 3.7 6.7 96 0.3 WSW 15 19 8 10 1018.6 1018.8 0.4
16/10:30pm 7.1 3.9 7.0 99 0.0 SW 13 17 7 9 1018.2 1018.5 0.4
16/10:00pm 7.1 3.6 7.0 99 0.0 WSW 15 19 8 10 1018.1 1018.4 0.4
16/09:30pm 7.0 3.8 6.7 98 0.1 WSW 13 15 7 8 1017.8 1018.1 0.4
16/09:00pm 6.0 3.4 5.9 99 0.0 W 9 13 5 7 1017.6 1017.9 0.4
16/08:30pm 7.6 4.9 7.5 99 0.0 SSW 11 11 6 6 1017.4 1017.7 0.4
16/08:00pm 8.0 5.9 6.8 92 0.6 WSW 7 11 4 6 1017.2 1017.5 0.4
16/07:30pm 9.3 6.6 7.4 88 0.9 SW 11 13 6 7 1016.9 1017.2 0.4
16/07:00pm 10.6 8.2 8.5 87 1.0 S 11 17 6 9 1016.1 1016.4 0.4
16/06:30pm 10.8 9.4 9.4 91 0.7 S 7 9 4 5 1015.6 1015.9 0.4
16/06:00pm 10.7 9.4 10.1 96 0.3 WSW 7 9 4 5 1015.2 1015.5 0.4
16/05:30pm 11.0 9.7 9.8 92 0.6 WNW 7 9 4 5 1014.8 1015.1 0.2
16/05:00pm 11.8 9.8 8.8 82 1.5 NNE 9 15 5 8 1014.6 1014.9 0.2
16/04:30pm 12.1 10.5 8.8 80 1.7 E 7 9 4 5 1014.8 1015.1 0.2
16/04:00pm 12.0 11.1 7.9 76 2.0 SSE 2 6 1 3 1015.0 1015.3 0.2
16/03:30pm 11.7 10.3 8.7 82 1.5 S 6 11 3 6 1015.2 1015.5 0.2
16/03:00pm 11.4 9.0 8.6 83 1.4 ENE 11 13 6 7 1015.1 1015.4 0.2
16/02:30pm 12.4 10.0 7.1 70 2.6 N 9 13 5 7 1015.1 1015.4 0.0
16/02:00pm 12.7 7.5 5.4 61 3.4 NW 22 32 12 17 1015.8 1016.1 0.0
16/01:30pm 13.3 8.4 5.2 58 3.8 N 20 28 11 15 1014.2 1014.5 0.0
16/01:00pm 13.8 9.5 5.4 57 4.0 N 17 24 9 13 1015.4 1015.7 0.0
16/12:30pm 13.0 8.0 4.4 56 4.0 N 20 28 11 15 1015.7 1016.0 0.0
16/12:00pm 11.9 9.4 6.4 69 2.6 NNW 9 11 5 6 1016.2 1016.5 0.0
16/11:30am 10.6 8.4 6.4 75 2.0 N 7 11 4 6 1016.6 1016.9 0.0
16/11:00am 10.0 7.3 5.8 75 1.9 NNE 9 11 5 6 1017.1 1017.4 0.0

Other formats

Comma delimited format used in spreadsheet applications
http://www.bom.gov.au/fwo/IDV60801/IDV60801.94889.axf

JavaScript Object Notation format (JSON) in row-major order
http://www.bom.gov.au/fwo/IDV60801/IDV60801.94889.json

Data quality

Most of these data are generated automatically and are frequently updated. Quality checks on data are not normally performed. It is possible for incorrect values to appear. Refer to information at About Latest Weather Observations and please check the disclaimer before using these data.